Alpine, Texas
Current Conditions -  °F | °C
As of 10:15 PM on Wednesday 26 Nov 2014 (Local Time) from KE38 Reporting Station
Clear Clear  
Wind Chill: 33°   Ceiling: Unl
Heat Index: 38°   Visibility: 10mi
Dew Point: 24°   Wind: 8mph
Humidity: 56%   Direction: 250°WSW
Pressure: 30.41"   Gusts: NA
Location:  30.36°N, 103.66°W
Report Text: KE38 270415Z AUTO 25007KT 10SM CLR 04/M04 A3041 RMK AO2 T00361045
Loading
Personal Weather Stations






























Interactive Weather Map New forecast layout! Learn more

10-Day Weather Forecast

Advertisements
Track Severe Weather on mobile